Time;durP1;ratioP1;P1;durP2;ratioP2;P2;SDS_P1;SDS_P2;PMS_P1;PMS_P2;Temp;Humidity;BMP_temperature;BMP_pressure;BME280_temperature;BME280_humidity;BME280_pressure;Samples;Min_cycle;Max_cycle;Signal;HPM_P1;HPM_P2
2022/11/02 00:01:40;;;;;;;32.22;16.23;;;;;;;14.52;83.47;101235.53;5088159;28;20036;-76
2022/11/02 00:04:06;;;;;;;36.17;15.40;;;;;;;14.69;83.52;101268.22;5051984;28;20105;-78
2022/11/02 00:06:31;;;;;;;27.73;15.13;;;;;;;14.69;83.61;101264.66;5088528;28;20063;-77
2022/11/02 00:08:56;;;;;;;29.75;14.48;;;;;;;14.64;83.59;101264.22;5087960;28;20057;-77
2022/11/02 00:11:22;;;;;;;24.85;16.13;;;;;;;14.63;83.75;101265.19;5087865;28;20043;-77
2022/11/02 00:13:47;;;;;;;32.38;14.82;;;;;;;14.62;83.62;101264.34;5087905;28;20363;-78
2022/11/02 00:16:16;;;;;;;38.58;16.52;;;;;;;14.60;83.59;101254.66;5090093;28;20027;-77
2022/11/02 00:18:45;;;;;;;34.40;15.35;;;;;;;14.50;83.38;101256.44;5091796;28;20509;-77
2022/11/02 00:21:11;;;;;;;31.85;16.45;;;;;;;14.48;84.04;101239.47;5091536;28;20039;-77
2022/11/02 00:23:38;;;;;;;34.40;16.67;;;;;;;14.47;84.35;101243.16;5091563;28;20415;-77
2022/11/02 00:26:07;;;;;;;40.92;17.13;;;;;;;14.52;83.95;101243.66;5091267;28;20050;-76
2022/11/02 00:28:32;;;;;;;46.00;17.48;;;;;;;14.49;83.99;101246.63;5091475;28;20506;-77
2022/11/02 00:30:57;;;;;;;56.97;18.20;;;;;;;14.45;83.84;101237.03;5072031;28;20052;-77
2022/11/02 00:33:23;;;;;;;46.78;18.02;;;;;;;14.45;84.08;101239.75;5091399;28;20128;-78
2022/11/02 00:35:48;;;;;;;45.63;18.48;;;;;;;14.47;84.06;101232.34;5091281;28;20110;-77
2022/11/02 00:38:14;;;;;;;35.67;16.17;;;;;;;14.47;84.12;101232.34;5091218;28;20089;-79
2022/11/02 00:40:39;;;;;;;35.40;15.88;;;;;;;14.41;83.98;101238.28;5091210;28;20020;-77
2022/11/02 00:43:05;;;;;;;29.13;16.67;;;;;;;14.36;84.02;101232.44;5091434;28;20740;-77
2022/11/02 00:45:31;;;;;;;45.40;17.67;;;;;;;14.33;84.27;101225.47;5091157;28;20105;-77
2022/11/02 00:47:56;;;;;;;33.92;15.32;;;;;;;14.15;84.79;101200.84;5090903;28;20356;-77
2022/11/02 00:50:22;;;;;;;51.58;16.88;;;;;;;14.27;84.58;101225.09;5091132;28;20082;-79
2022/11/02 00:52:47;;;;;;;27.67;15.20;;;;;;;14.30;84.27;101222.97;5090936;28;20078;-77
2022/11/02 00:55:14;;;;;;;24.75;14.65;;;;;;;14.15;84.33;101199.97;5091085;28;20111;-78
2022/11/02 00:57:40;;;;;;;34.63;15.63;;;;;;;14.27;84.34;101219.69;5090966;28;20024;-77
2022/11/02 01:00:07;;;;;;;37.95;14.00;;;;;;;14.27;84.08;101212.44;5090950;28;20030;-77
2022/11/02 01:02:33;;;;;;;40.17;15.48;;;;;;;14.27;84.13;101215.13;5098357;28;20024;-79
2022/11/02 01:04:59;;;;;;;43.40;15.38;;;;;;;14.27;84.08;101215.13;5109733;28;20024;-78
2022/11/02 01:07:25;;;;;;;40.38;14.57;;;;;;;14.28;83.37;101210.59;5112194;28;20093;-79
2022/11/02 01:09:51;;;;;;;85.93;16.17;;;;;;;14.10;83.27;101181.44;5094994;28;20067;-77
2022/11/02 01:12:16;;;;;;;26.27;12.88;;;;;;;14.23;83.53;101208.28;5090796;28;20081;-78
2022/11/02 01:14:42;;;;;;;27.60;13.48;;;;;;;14.22;83.58;101203.00;5090528;28;20032;-79
2022/11/02 01:17:07;;;;;;;26.67;14.05;;;;;;;14.11;83.56;101177.75;5090585;28;20043;-77
2022/11/02 01:19:33;;;;;;;63.95;15.60;;;;;;;14.28;83.41;101194.34;5090477;28;20028;-77
2022/11/02 01:21:58;;;;;;;69.20;16.33;;;;;;;14.30;83.16;101198.63;5090429;28;20475;-79
2022/11/02 01:24:23;;;;;;;56.10;15.75;;;;;;;14.13;83.15;101175.75;5090435;28;20020;-78
2022/11/02 01:26:50;;;;;;;101.10;16.40;;;;;;;14.30;83.13;101197.78;5090041;28;20395;-78
2022/11/02 01:29:16;;;;;;;52.72;13.13;;;;;;;14.33;82.94;101192.97;5090164;28;20111;-77
2022/11/02 01:31:42;;;;;;;31.15;12.52;;;;;;;14.36;82.44;101192.72;5090367;28;20052;-77
2022/11/02 01:34:07;;;;;;;28.35;12.27;;;;;;;14.36;81.96;101178.31;5090395;28;20028;-77
2022/11/02 01:36:33;;;;;;;21.15;12.07;;;;;;;14.18;81.61;101151.00;5090136;28;20097;-77
2022/11/02 01:38:58;;;;;;;36.22;13.07;;;;;;;14.18;81.66;101153.72;5089913;28;20120;-77
2022/11/02 01:41:24;;;;;;;30.17;10.60;;;;;;;14.32;81.48;101169.56;5090283;28;20031;-77
2022/11/02 01:43:53;;;;;;;28.52;12.20;;;;;;;14.34;81.65;101177.59;5089878;28;20051;-78
2022/11/02 01:46:23;;;;;;;32.47;12.50;;;;;;;14.33;81.43;101175.88;5090086;28;20034;-78
2022/11/02 01:49:02;;;;;;;58.28;12.80;;;;;;;14.28;81.36;101167.28;5089886;28;20023;-77
2022/11/02 01:51:40;;;;;;;23.42;10.00;;;;;;;14.24;81.01;101165.84;5089692;28;20028;-77
2022/11/02 01:54:17;;;;;;;30.35;12.50;;;;;;;14.13;81.37;101147.84;5089994;28;20411;-78
2022/11/02 01:56:48;;;;;;;33.85;9.50;;;;;;;14.17;81.30;101160.97;5089891;28;20034;-77
2022/11/02 01:59:18;;;;;;;24.23;10.13;;;;;;;14.10;81.77;101159.78;5089688;28;20475;-78
2022/11/02 02:01:44;;;;;;;371.50;38.47;;;;;;;14.06;81.37;101144.84;5089355;28;20056;-77
2022/11/02 02:04:11;;;;;;;42.95;11.75;;;;;;;13.93;81.53;101124.41;5089784;28;20075;-78
2022/11/02 02:06:37;;;;;;;18.23;10.77;;;;;;;14.09;81.25;101155.38;5089576;28;20107;-78
2022/11/02 02:09:06;;;;;;;73.53;13.10;;;;;;;13.99;81.15;101143.66;5089926;28;20103;-78
2022/11/02 02:11:36;;;;;;;25.88;10.43;;;;;;;14.02;81.30;101154.19;5089595;28;20024;-77
2022/11/02 02:14:08;;;;;;;26.25;11.65;;;;;;;14.05;81.23;101150.38;5092715;28;20081;-78
2022/11/02 02:16:55;;;;;;;16.52;10.43;;;;;;;14.04;81.05;101149.50;5104098;28;20020;-79
2022/11/02 02:19:45;;;;;;;56.67;14.05;;;;;;;13.81;81.33;101128.16;5106246;28;20039;-78
2022/11/02 02:22:25;;;;;;;21.55;11.05;;;;;;;13.94;81.31;101153.16;5089307;28;20028;-78
2022/11/02 02:25:00;;;;;;;21.48;10.60;;;;;;;13.93;81.04;101155.00;5089095;28;20039;-78
2022/11/02 02:27:59;;;;;;;20.90;10.98;;;;;;;13.91;81.15;101150.72;5089194;28;20016;-78
2022/11/02 02:30:27;;;;;;;84.75;14.00;;;;;;;13.88;81.11;101154.53;5089092;28;20024;-79
2022/11/02 02:33:02;;;;;;;33.85;10.93;;;;;;;13.88;81.27;101142.88;5089285;28;20048;-77
2022/11/02 02:35:51;;;;;;;16.52;10.57;;;;;;;13.74;80.99;101126.97;5089127;28;20418;-77
2022/11/02 02:38:26;;;;;;;32.05;10.32;;;;;;;13.86;81.18;101143.00;5089222;28;20028;-77
2022/11/02 02:41:01;;;;;;;16.95;9.80;;;;;;;13.82;81.16;101143.41;5088181;28;20020;-76
2022/11/02 02:43:39;;;;;;;22.80;11.27;;;;;;;13.80;81.15;101143.53;5088667;28;20113;-77
2022/11/02 02:46:15;;;;;;;75.63;13.93;;;;;;;13.82;81.12;101146.13;5088939;28;20541;-78
2022/11/02 02:48:44;;;;;;;22.48;10.75;;;;;;;13.74;81.10;101130.53;5088892;28;20032;-77
2022/11/02 02:51:23;;;;;;;27.15;11.02;;;;;;;13.83;81.03;101140.56;5088876;28;20020;-77
2022/11/02 02:53:57;;;;;;;19.25;10.35;;;;;;;13.88;80.55;101142.88;5088694;28;20478;-76
2022/11/02 02:56:25;;;;;;;25.27;11.63;;;;;;;13.91;80.65;101143.44;5089072;28;20031;-78
2022/11/02 02:59:01;;;;;;;21.88;11.82;;;;;;;13.95;81.55;101144.03;5088698;28;20032;-77
2022/11/02 03:01:27;;;;;;;31.10;11.50;;;;;;;13.99;81.42;101146.34;5065924;28;20396;-78
2022/11/02 03:03:52;;;;;;;18.77;11.07;;;;;;;14.01;81.54;101144.38;5065735;28;20047;-78
2022/11/02 03:06:29;;;;;;;65.45;14.65;;;;;;;13.84;81.88;101115.25;5065866;28;20132;-76
2022/11/02 03:09:15;;;;;;;20.23;12.65;;;;;;;14.01;82.35;101138.94;5065924;28;20076;-77
2022/11/02 03:11:58;;;;;;;17.88;12.75;;;;;;;14.02;82.55;101139.81;5065942;28;20110;-79
2022/11/02 03:14:37;;;;;;;19.77;13.70;;;;;;;13.89;82.63;101104.88;5065914;28;20140;-77
2022/11/02 03:17:24;;;;;;;24.38;13.80;;;;;;;14.02;82.76;101121.75;5065574;28;20519;-78
2022/11/02 03:19:59;;;;;;;43.85;16.70;;;;;;;14.02;83.24;101123.59;5066085;28;20089;-78
2022/11/02 03:22:58;;;;;;;26.40;15.50;;;;;;;14.03;83.10;101122.59;5065827;28;20039;-77
2022/11/02 03:25:31;;;;;;;20.67;14.32;;;;;;;13.81;83.14;101085.78;5067746;28;20028;-79
2022/11/02 03:28:12;;;;;;;29.83;16.20;;;;;;;13.96;83.05;101116.88;5082915;28;20028;-77
2022/11/02 03:30:43;;;;;;;30.35;16.13;;;;;;;13.77;83.57;101088.88;5082315;28;20040;-77
2022/11/02 03:33:21;;;;;;;35.33;16.52;;;;;;;13.94;83.09;101110.72;5088417;28;20055;-77
2022/11/02 03:36:02;;;;;;;23.73;15.75;;;;;;;13.93;83.29;101114.44;5070392;28;20059;-76
2022/11/02 03:38:37;;;;;;;26.88;17.30;;;;;;;13.93;83.27;101108.16;5088439;28;20035;-78
2022/11/02 03:41:03;;;;;;;27.13;16.52;;;;;;;13.91;83.07;101100.19;5088246;28;20031;-77
2022/11/02 03:43:33;;;;;;;58.50;17.67;;;;;;;13.91;82.83;101105.59;5088409;28;20035;-77
2022/11/02 03:46:05;;;;;;;22.75;15.05;;;;;;;13.92;82.86;101101.03;5088014;28;20024;-78
2022/11/02 03:48:41;;;;;;;193.07;25.10;;;;;;;13.87;82.83;101103.31;5088505;28;20024;-77
2022/11/02 03:51:12;;;;;;;31.00;14.38;;;;;;;13.90;82.47;101103.88;5089760;28;20254;-77
2022/11/02 03:54:15;;;;;;;29.33;15.70;;;;;;;13.87;82.26;101104.16;5092053;28;20447;-78
2022/11/02 03:56:48;;;;;;;24.63;14.82;;;;;;;13.81;82.16;101112.81;5012489;28;20100;-77
2022/11/02 03:59:14;;;;;;;34.97;16.00;;;;;;;13.63;82.07;101071.16;5029161;28;20455;-77
2022/11/02 04:01:43;;;;;;;24.95;15.13;;;;;;;13.79;82.42;101095.84;5028977;28;20041;-77
2022/11/02 04:04:09;;;;;;;34.10;17.65;;;;;;;13.66;82.31;101076.31;5029318;28;20045;-78
2022/11/02 04:06:34;;;;;;;39.53;18.50;;;;;;;13.77;82.44;101092.44;5028895;28;20044;-78
2022/11/02 04:09:00;;;;;;;100.25;18.95;;;;;;;13.72;82.04;101086.56;5029053;28;20702;-77
2022/11/02 04:19:26;;;;;;;38.33;16.25;;;;;;;13.77;81.78;101087.03;5029289;28;20056;-77
2022/11/02 04:19:40;;;;;;;29.48;16.63;;;;;;;13.61;82.06;101048.78;5028504;28;20161;-77
2022/11/02 04:27:35;;;;;;;34.25;15.88;;;;;;;13.71;81.70;101055.13;5028681;28;20480;-78
2022/11/02 04:30:00;;;;;;;31.92;16.23;;;;;;;13.83;81.73;101072.97;5029073;28;20041;-78
2022/11/02 04:35:10;;;;;;;50.65;19.80;;;;;;;13.86;82.28;101075.41;5091196;28;20043;-78
2022/11/02 04:40:26;;;;;;;54.50;18.88;;;;;;;13.95;82.64;101069.19;5113367;28;20111;-78
2022/11/02 04:42:52;;;;;;;64.93;19.52;;;;;;;13.97;82.66;101075.31;5111154;28;20027;-77
2022/11/02 04:45:18;;;;;;;103.93;23.00;;;;;;;13.90;82.52;101057.91;5095660;28;20456;-77
2022/11/02 04:47:43;;;;;;;62.58;18.35;;;;;;;14.04;82.17;101068.34;5091521;28;20046;-77
2022/11/02 04:50:09;;;;;;;62.58;20.35;;;;;;;14.14;82.20;101074.66;5091137;28;20465;-78
2022/11/02 04:52:34;;;;;;;66.82;20.77;;;;;;;14.19;82.23;101077.81;5090864;28;20466;-76
2022/11/02 18:11:35;;;;;;;368.77;43.30;;;;;;;19.81;59.56;100904.72;5088014;28;20417;-75
2022/11/02 18:14:00;;;;;;;537.65;61.30;;;;;;;19.83;59.18;100894.44;5087814;28;20032;-78
2022/11/02 18:16:26;;;;;;;260.13;41.55;;;;;;;19.76;59.06;100888.00;5088058;28;20478;-76
2022/11/02 18:18:51;;;;;;;382.83;45.63;;;;;;;19.73;59.30;100910.19;5087230;28;20020;-76
2022/11/02 18:21:17;;;;;;;416.08;52.05;;;;;;;19.70;59.34;100905.06;5087984;28;20024;-78
2022/11/02 18:23:43;;;;;;;297.00;40.47;;;;;;;19.54;59.42;100884.16;5087665;28;20033;-78
2022/11/02 18:26:10;;;;;;;314.45;44.65;;;;;;;19.64;59.63;100913.97;5087872;28;20410;-78
2022/11/02 18:28:36;;;;;;;304.58;43.10;;;;;;;19.60;59.67;100901.72;5087931;28;20040;-77
2022/11/02 18:31:04;;;;;;;297.67;38.03;;;;;;;19.58;59.59;100903.75;5087997;28;20031;-77
2022/11/02 18:33:29;;;;;;;440.30;63.42;;;;;;;19.54;59.87;100915.03;5087937;28;20478;-79
2022/11/02 18:36:06;;;;;;;507.52;75.10;;;;;;;19.54;59.79;100920.50;5088273;28;20066;-78
2022/11/02 18:38:32;;;;;;;302.05;47.63;;;;;;;19.42;60.06;100918.31;5088196;28;20060;-77
2022/11/02 18:41:02;;;;;;;403.27;54.08;;;;;;;19.39;60.09;100914.06;5087849;28;20064;-77
2022/11/02 18:43:28;;;;;;;343.20;43.22;;;;;;;19.35;60.43;100912.69;5087784;28;20085;-76
2022/11/02 18:45:53;;;;;;;461.88;55.70;;;;;;;19.34;60.35;100921.88;5088023;28;20029;-77
2022/11/02 18:48:19;;;;;;;678.72;70.50;;;;;;;19.31;60.60;100916.78;5108019;28;20027;-78
2022/11/02 18:50:44;;;;;;;447.85;53.85;;;;;;;19.25;60.48;100916.63;5108184;28;20026;-78
2022/11/02 18:53:09;;;;;;;343.52;44.15;;;;;;;19.23;60.58;100918.69;5108652;28;20760;-78
2022/11/02 18:55:38;;;;;;;255.65;37.10;;;;;;;19.21;60.57;100927.03;5107757;28;20031;-78
2022/11/02 18:58:03;;;;;;;243.93;40.70;;;;;;;19.12;60.36;100917.16;5107667;28;20034;-77
2022/11/02 19:00:29;;;;;;;192.23;34.38;;;;;;;19.05;60.33;100913.41;5094561;28;20032;-78
2022/11/02 19:02:54;;;;;;;284.77;38.80;;;;;;;19.06;60.27;100923.28;5086635;28;20441;-76
2022/11/02 19:10:47;;;;;;;367.55;41.35;;;;;;;18.93;60.01;100928.41;5093410;28;20028;-80
2022/11/02 19:13:13;;;;;;;217.52;33.25;;;;;;;18.89;60.10;100940.69;5090921;28;20028;-78
2022/11/02 19:15:39;;;;;;;222.93;34.05;;;;;;;18.88;59.84;100948.03;5086597;28;20027;-76
2022/11/02 19:18:05;;;;;;;332.95;40.78;;;;;;;18.82;60.06;100943.25;5085069;28;20028;-75
2022/11/02 19:20:30;;;;;;;375.42;46.70;;;;;;;18.78;59.95;100941.03;5072322;28;20486;-76
2022/11/02 19:22:55;;;;;;;373.67;42.97;;;;;;;18.63;60.15;100927.22;5072584;28;20024;-78
2022/11/02 19:25:21;;;;;;;330.17;41.25;;;;;;;18.69;59.80;100944.78;5072771;28;20024;-78
2022/11/02 19:27:46;;;;;;;304.80;39.25;;;;;;;18.67;59.84;100944.94;5073417;28;20036;-76
2022/11/02 19:30:12;;;;;;;334.38;44.40;;;;;;;18.67;59.78;100960.44;5073228;28;20045;-79
2022/11/02 19:32:38;;;;;;;438.85;51.78;;;;;;;18.49;59.74;100925.19;5073383;28;20024;-77
2022/11/02 19:35:03;;;;;;;380.20;46.35;;;;;;;18.52;59.93;100953.97;5072931;28;20100;-77
2022/11/02 19:37:29;;;;;;;237.65;36.63;;;;;;;18.49;60.21;100952.44;5073018;28;20032;-79
2022/11/02 19:39:54;;;;;;;263.33;35.20;;;;;;;18.34;60.18;100943.19;5073387;28;20024;-77
2022/11/02 19:42:19;;;;;;;172.38;28.17;;;;;;;18.37;60.43;100954.59;5073063;28;20025;-77
2022/11/02 19:44:45;;;;;;;100.05;27.48;;;;;;;18.40;60.00;100962.44;5073329;28;20135;-79
2022/11/02 19:47:10;;;;;;;79.38;30.70;;;;;;;18.30;60.24;100961.72;5064825;28;20036;-78
2022/11/02 19:49:36;;;;;;;184.73;32.67;;;;;;;18.29;60.21;100962.72;5082994;28;20031;-79
2022/11/02 19:52:01;;;;;;;146.73;30.20;;;;;;;18.26;60.45;100963.06;5044221;28;20328;-77
2022/11/02 19:54:27;;;;;;;246.30;38.15;;;;;;;18.27;60.16;100972.94;5082850;28;20100;-78
2022/11/02 19:56:52;;;;;;;164.93;29.92;;;;;;;18.21;60.18;100970.88;5082792;28;20020;-78
2022/11/02 19:59:18;;;;;;;180.57;32.15;;;;;;;18.02;60.54;100941.19;5081963;28;20104;-78
2022/11/02 20:01:45;;;;;;;220.57;34.97;;;;;;;18.13;60.22;100959.97;5086253;28;20104;-76
2022/11/02 20:04:10;;;;;;;239.48;37.92;;;;;;;18.17;60.26;100965.91;5092499;28;20020;-77
2022/11/02 20:06:41;;;;;;;112.38;31.65;;;;;;;18.20;60.24;100962.88;5092464;28;20085;-78
2022/11/02 20:09:13;;;;;;;301.73;40.63;;;;;;;18.18;60.09;100960.31;5091830;28;20056;-79
2022/11/02 20:11:43;;;;;;;314.38;42.88;;;;;;;18.12;60.45;100954.69;5091555;28;20094;-78
2022/11/02 20:14:09;;;;;;;407.10;47.83;;;;;;;18.07;60.43;100955.16;5091988;28;20024;-78
2022/11/02 20:16:34;;;;;;;189.88;34.53;;;;;;;18.06;60.57;100968.94;5095151;28;20032;-79
2022/11/02 20:18:59;;;;;;;203.82;31.55;;;;;;;18.01;60.75;100974.88;5104651;28;20066;-78
2022/11/02 20:21:28;;;;;;;325.45;43.88;;;;;;;17.98;60.94;100977.09;5085439;28;20118;-79
2022/11/02 20:23:54;;;;;;;79.88;26.23;;;;;;;17.88;61.25;100990.84;5096044;28;20092;-77
2022/11/02 20:26:25;;;;;;;98.30;27.25;;;;;;;17.55;61.37;100948.97;5091860;28;20429;-76
2022/11/02 20:28:51;;;;;;;130.32;32.75;;;;;;;17.82;61.50;100988.75;5092392;28;20035;-78
2022/11/02 20:31:19;;;;;;;55.03;24.58;;;;;;;17.81;61.42;100978.88;5090946;28;20032;-77
2022/11/02 20:33:45;;;;;;;329.08;41.63;;;;;;;17.93;61.36;100994.75;5091652;28;20028;-77
2022/11/02 20:36:11;;;;;;;217.95;41.22;;;;;;;17.74;61.23;100948.75;5092689;28;20043;-78
2022/11/02 20:38:37;;;;;;;82.80;29.48;;;;;;;17.85;61.12;100981.13;5093467;28;20028;-78
2022/11/02 20:41:11;;;;;;;195.10;31.30;;;;;;;17.95;61.29;100987.28;5092182;28;20402;-77
2022/11/02 20:43:39;;;;;;;126.88;29.15;;;;;;;17.82;61.92;100986.03;5091232;28;20076;-76
2022/11/02 20:46:14;;;;;;;75.75;24.65;;;;;;;17.83;61.32;100983.13;5090978;28;20591;-76
2022/11/02 20:48:40;;;;;;;62.10;23.35;;;;;;;17.83;61.30;100983.13;5090942;28;20020;-75
2022/11/02 20:51:06;;;;;;;98.20;24.63;;;;;;;17.84;60.44;100981.28;5091555;28;20028;-75
2022/11/02 20:53:31;;;;;;;96.47;25.08;;;;;;;17.84;60.27;100986.72;5091391;28;20470;-77
2022/11/02 20:55:57;;;;;;;74.07;22.73;;;;;;;17.76;60.66;100986.69;5083963;28;20109;-77
2022/11/02 20:58:24;;;;;;;120.05;25.52;;;;;;;17.71;60.29;100967.25;5070884;28;20021;-75
2022/11/02 21:00:50;;;;;;;72.60;24.73;;;;;;;17.71;60.46;100978.13;5070120;28;20122;-76
2022/11/02 21:03:17;;;;;;;70.03;21.88;;;;;;;17.74;60.13;100978.66;5076090;28;20478;-76
2022/11/02 21:05:46;;;;;;;189.90;29.50;;;;;;;17.51;60.28;100947.59;5090718;28;20747;-78
2022/11/02 21:08:11;;;;;;;219.70;31.75;;;;;;;17.70;60.19;100987.34;5072716;28;20055;-75
2022/11/02 21:10:37;;;;;;;131.60;24.98;;;;;;;17.58;60.24;100989.50;5090540;28;20028;-77
2022/11/02 21:15:47;;;;;;;125.07;25.88;;;;;;;17.67;60.02;101003.97;5094168;28;20035;-77
2022/11/02 21:18:13;;;;;;;64.43;22.88;;;;;;;17.64;60.09;100999.72;5092138;28;20028;-77
2022/11/02 21:20:38;;;;;;;315.63;46.45;;;;;;;17.70;60.47;101004.53;5092391;28;20024;-77
2022/11/02 21:23:04;;;;;;;326.42;40.92;;;;;;;17.76;59.92;101013.91;5090612;28;20115;-76
2022/11/02 21:25:31;;;;;;;102.30;25.63;;;;;;;17.69;60.43;101010.09;5090798;28;20024;-76
2022/11/02 21:27:57;;;;;;;102.88;27.60;;;;;;;17.78;60.26;101017.28;5092598;28;20448;-77
2022/11/02 21:30:23;;;;;;;64.60;25.13;;;;;;;17.75;60.12;101021.19;5077988;28;20028;-77
2022/11/02 21:32:51;;;;;;;63.13;24.05;;;;;;;17.69;60.30;101021.00;5097407;28;20042;-75
2022/11/02 21:35:17;;;;;;;76.55;25.55;;;;;;;17.52;60.61;101017.25;5091189;28;20126;-76
2022/11/02 21:37:42;;;;;;;106.22;23.85;;;;;;;17.52;60.66;101021.88;5090384;28;20028;-77
2022/11/02 21:40:08;;;;;;;93.50;23.25;;;;;;;17.44;60.80;101003.63;5090388;28;20024;-77
2022/11/02 21:42:34;;;;;;;67.07;22.55;;;;;;;17.38;60.27;100993.38;5090099;28;20032;-76
2022/11/02 21:44:59;;;;;;;186.27;28.63;;;;;;;17.53;60.07;101034.44;5091001;28;20058;-76
2022/11/02 21:47:28;;;;;;;213.20;29.08;;;;;;;17.48;60.35;101047.69;5090063;28;20103;-77
2022/11/02 21:49:53;;;;;;;423.85;45.47;;;;;;;17.42;60.47;101039.16;5089891;28;20477;-76
2022/11/02 21:52:18;;;;;;;375.85;43.95;;;;;;;17.43;60.57;101043.56;5089996;28;20111;-76
2022/11/02 21:54:44;;;;;;;236.20;30.73;;;;;;;17.35;60.44;101032.63;5090151;28;20098;-77
2022/11/02 21:57:09;;;;;;;193.07;31.30;;;;;;;17.39;60.50;101044.91;5089930;28;20034;-76
2022/11/02 21:59:35;;;;;;;36.80;15.70;;;;;;;17.36;59.89;101045.22;5088205;28;20031;-77
2022/11/02 22:02:01;;;;;;;127.32;23.58;;;;;;;17.36;59.96;101036.22;5070582;28;20055;-76
2022/11/02 22:04:27;;;;;;;285.60;32.22;;;;;;;17.41;59.64;101042.00;5070476;28;20024;-76
2022/11/02 22:06:58;;;;;;;477.58;53.72;;;;;;;17.17;59.91;101009.22;5069757;28;20064;-77
2022/11/02 22:09:24;;;;;;;239.05;29.88;;;;;;;17.35;60.13;101048.94;5069706;28;20084;-76
2022/11/02 22:14:40;;;;;;;158.02;26.33;;;;;;;17.34;60.07;101046.38;5007410;28;20095;-76
2022/11/02 22:17:07;;;;;;;152.02;23.67;;;;;;;17.19;59.92;101020.75;5007083;28;20046;-76
2022/11/02 22:19:32;;;;;;;142.52;26.00;;;;;;;17.37;60.02;101051.50;5007337;28;20041;-77
2022/11/02 22:21:58;;;;;;;283.17;34.95;;;;;;;17.37;59.81;101056.94;5007414;28;20649;-76
2022/11/02 22:24:27;;;;;;;106.05;25.17;;;;;;;17.35;59.87;101048.94;5007399;28;20042;-76
2022/11/02 22:26:52;;;;;;;225.05;29.30;;;;;;;17.35;59.89;101051.66;5007107;28;20030;-76
2022/11/02 22:29:18;;;;;;;94.13;22.77;;;;;;;17.33;59.40;101056.41;5007293;28;20041;-77
2022/11/02 22:31:44;;;;;;;195.73;26.48;;;;;;;17.35;59.68;101058.97;5007217;28;20048;-76
2022/11/02 22:34:11;;;;;;;184.05;26.02;;;;;;;17.31;59.75;101058.41;5007029;28;20033;-77
2022/11/02 22:36:42;;;;;;;167.50;27.48;;;;;;;17.31;59.88;101069.28;5007122;28;20056;-76
2022/11/02 22:39:11;;;;;;;132.90;23.77;;;;;;;17.29;59.93;101071.34;5008791;28;20042;-75
2022/11/02 22:41:42;;;;;;;114.93;25.17;;;;;;;17.31;60.04;101080.16;5011079;28;20547;-77
2022/11/02 22:44:19;;;;;;;118.00;25.08;;;;;;;17.29;59.87;101086.78;5011485;28;20473;-76
2022/11/02 22:46:47;;;;;;;92.75;22.65;;;;;;;17.10;60.28;101066.06;5006925;28;20161;-77
2022/11/02 22:49:13;;;;;;;289.77;34.25;;;;;;;17.24;60.42;101089.13;5006744;28;20045;-76
2022/11/02 22:51:42;;;;;;;366.77;40.60;;;;;;;17.21;60.32;101095.75;5038011;28;20083;-75
2022/11/02 22:54:13;;;;;;;150.82;25.38;;;;;;;17.21;60.14;101100.31;5027387;28;20049;-76
2022/11/02 22:56:39;;;;;;;224.43;31.40;;;;;;;17.17;60.56;101091.63;5030435;28;20046;-75
2022/11/02 22:59:05;;;;;;;99.65;23.05;;;;;;;17.19;60.53;101103.19;5030070;28;20186;-76
2022/11/02 23:01:32;;;;;;;115.60;22.95;;;;;;;17.18;60.73;101101.50;5030367;28;20580;-76
2022/11/02 23:03:57;;;;;;;375.95;38.65;;;;;;;17.16;60.53;101103.47;5029920;28;20124;-76
2022/11/02 23:06:23;;;;;;;213.05;26.27;;;;;;;16.96;60.58;101079.34;5030231;28;20172;-76
2022/11/02 23:08:51;;;;;;;207.25;28.70;;;;;;;17.11;60.46;101100.41;5029424;28;20388;-76
2022/11/02 23:11:20;;;;;;;67.35;17.05;;;;;;;17.14;60.42;101112.81;5029926;28;20032;-77
2022/11/02 23:14:05;;;;;;;94.95;18.98;;;;;;;17.17;60.23;101116.06;5029961;28;20195;-76
2022/11/02 23:16:32;;;;;;;56.05;14.80;;;;;;;17.16;59.88;101125.22;5030118;28;20547;-77
2022/11/02 23:19:18;;;;;;;67.93;16.48;;;;;;;17.17;59.79;101121.53;5030133;28;20107;-77
2022/11/02 23:21:49;;;;;;;63.03;15.80;;;;;;;17.19;59.87;101130.34;5013850;28;20080;-75
2022/11/02 23:27:00;;;;;;;172.77;25.55;;;;;;;17.22;59.90;101140.06;5072398;28;20109;-76
2022/11/02 23:32:27;;;;;;;37.38;14.35;;;;;;;17.11;59.83;101135.72;5010363;28;20044;-76
2022/11/02 23:37:43;;;;;;;54.90;15.02;;;;;;;17.08;60.18;101155.06;5010351;28;20503;-76
2022/11/02 23:40:09;;;;;;;217.32;24.05;;;;;;;17.17;60.04;101156.84;5010239;28;20046;-76
2022/11/02 23:42:35;;;;;;;41.85;16.75;;;;;;;17.08;60.05;101138.75;5009986;28;20026;-76
2022/11/02 23:45:00;;;;;;;45.15;17.40;;;;;;;17.11;59.98;101157.47;5010285;28;20062;-75
2022/11/02 23:56:41;;;;;;;34.05;16.20;;;;;;;16.98;60.26;101137.97;5010288;28;20059;-76
2022/11/02 23:58:29;;;;;;;53.63;19.73;;;;;;;16.82;60.64;101132.34;5009562;28;20040;-76
